createdAt,value
2018-03-21T00:02:19.071Z,71.27
2018-03-21T00:04:47.337Z,72.14
2018-03-21T00:07:15.604Z,72.56
2018-03-21T00:09:43.893Z,72.42
2018-03-21T00:12:12.172Z,72.94
2018-03-21T00:14:40.445Z,73.42
2018-03-21T00:17:08.725Z,73.47
2018-03-21T00:19:37.003Z,73.92
2018-03-21T00:22:05.257Z,74.10
2018-03-21T00:24:33.529Z,74.21
2018-03-21T00:27:01.794Z,74.58
2018-03-21T00:29:30.049Z,74.59
2018-03-21T00:31:59.096Z,74.25
2018-03-21T00:34:27.371Z,73.72
2018-03-21T00:36:55.663Z,73.44
2018-03-21T00:39:23.996Z,72.87
2018-03-21T00:41:52.275Z,73.61
2018-03-21T00:44:20.557Z,74.25
2018-03-21T00:46:48.824Z,74.60
2018-03-21T00:49:17.148Z,74.75
2018-03-21T00:51:45.408Z,74.47
2018-03-21T00:54:13.676Z,74.28
2018-03-21T00:56:41.988Z,73.86
2018-03-21T00:59:10.276Z,73.75
2018-03-21T01:01:38.543Z,73.74
2018-03-21T01:04:06.852Z,73.75
2018-03-21T01:06:35.182Z,73.37
2018-03-21T01:09:03.452Z,73.77
2018-03-21T01:11:31.732Z,73.74
2018-03-21T01:14:00.012Z,73.69
2018-03-21T01:16:28.275Z,73.46
2018-03-21T01:18:56.563Z,73.18
2018-03-21T01:21:24.853Z,72.63
2018-03-21T01:23:53.132Z,72.10
2018-03-21T01:26:21.423Z,71.98
2018-03-21T01:28:50.457Z,72.38
2018-03-21T01:31:18.724Z,72.71
2018-03-21T01:33:47.023Z,73.17
2018-03-21T01:36:15.294Z,73.89
2018-03-21T01:38:43.585Z,74.21
2018-03-21T01:41:12.985Z,74.44
2018-03-21T01:43:41.276Z,74.40
2018-03-21T01:46:09.566Z,74.43
2018-03-21T01:48:37.828Z,74.36
2018-03-21T01:51:06.108Z,75.10
2018-03-21T01:53:34.376Z,75.94
2018-03-21T01:56:02.656Z,75.82
2018-03-21T01:58:30.931Z,76.58
2018-03-21T02:00:59.204Z,77.77
2018-03-21T02:03:27.471Z,78.30
2018-03-21T02:05:55.728Z,79.21
2018-03-21T02:08:24.000Z,78.46
2018-03-21T02:10:52.285Z,78.35
2018-03-21T02:13:20.560Z,77.42
2018-03-21T02:15:48.829Z,77.96
2018-03-21T02:18:17.097Z,78.55
2018-03-21T02:20:45.352Z,78.93
2018-03-21T02:23:14.379Z,79.38
2018-03-21T02:25:42.752Z,79.75
2018-03-21T02:28:11.028Z,80.15
2018-03-21T02:30:39.335Z,79.24
2018-03-21T02:33:07.588Z,78.35
2018-03-21T02:35:35.845Z,77.73
2018-03-21T02:38:04.131Z,78.18
2018-03-21T02:40:32.424Z,77.43
2018-03-21T02:43:00.689Z,77.38
2018-03-21T02:45:28.976Z,77.79
2018-03-21T02:47:57.256Z,77.98
2018-03-21T02:50:25.530Z,77.99
2018-03-21T02:52:53.813Z,78.56
2018-03-21T02:55:22.081Z,79.57
2018-03-21T02:57:50.364Z,79.04
2018-03-21T03:00:18.623Z,78.22
2018-03-21T03:02:46.899Z,78.13
2018-03-21T03:05:15.158Z,79.55
2018-03-21T03:07:43.432Z,80.35
2018-03-21T03:10:11.711Z,81.32
2018-03-21T03:12:40.112Z,81.39
2018-03-21T03:15:08.462Z,82.31
2018-03-21T03:17:36.735Z,83.98
2018-03-21T03:20:05.012Z,84.45
2018-03-21T03:22:33.287Z,83.65
2018-03-21T03:25:01.580Z,82.18
2018-03-21T03:27:29.956Z,80.80
2018-03-21T03:29:58.244Z,80.68
2018-03-21T03:32:26.500Z,81.27
2018-03-21T03:34:54.772Z,80.76
2018-03-21T03:37:23.059Z,81.22
2018-03-21T03:39:51.323Z,81.18
2018-03-21T03:42:19.584Z,80.98
2018-03-21T03:44:48.636Z,80.99
2018-03-21T03:47:16.915Z,80.78
2018-03-21T03:49:45.183Z,79.76
2018-03-21T03:52:13.483Z,79.74
2018-03-21T03:54:42.520Z,82.46
2018-03-21T03:57:10.812Z,83.27
2018-03-21T03:59:39.085Z,81.61
2018-03-21T04:02:07.343Z,80.77
2018-03-21T04:04:35.680Z,80.89
2018-03-21T04:07:03.951Z,80.83
2018-03-21T04:09:32.207Z,81.02
2018-03-21T04:12:00.499Z,80.92
2018-03-21T04:14:28.854Z,80.77
2018-03-21T04:16:57.137Z,80.31
2018-03-21T04:19:25.403Z,81.04
2018-03-21T04:21:53.689Z,81.36
2018-03-21T04:24:21.960Z,80.79
2018-03-21T04:26:50.223Z,80.85
2018-03-21T04:29:18.664Z,80.27
2018-03-21T04:31:46.933Z,79.98
2018-03-21T04:34:15.214Z,79.98
2018-03-21T04:36:43.474Z,79.98
2018-03-21T04:39:11.736Z,80.28
2018-03-21T04:41:40.029Z,81.42
2018-03-21T04:44:08.294Z,81.95
2018-03-21T04:46:36.564Z,82.50
2018-03-21T04:49:04.839Z,82.96
2018-03-21T04:51:33.113Z,82.88
2018-03-21T04:54:01.385Z,81.89
2018-03-21T04:56:29.651Z,81.29
2018-03-21T04:58:57.913Z,81.00
2018-03-21T05:01:26.232Z,80.59
2018-03-21T05:03:54.509Z,80.39
2018-03-21T05:06:22.798Z,80.10
2018-03-21T05:08:51.080Z,80.92
2018-03-21T05:11:20.943Z,82.66
2018-03-21T05:13:49.231Z,83.57
2018-03-21T05:16:17.518Z,83.08
2018-03-21T05:18:45.840Z,82.35
2018-03-21T05:21:14.875Z,81.94
2018-03-21T05:23:43.131Z,81.45
2018-03-21T05:26:11.406Z,82.15
2018-03-21T05:28:39.692Z,82.82
2018-03-21T05:31:07.972Z,82.86
2018-03-21T05:33:36.244Z,83.70
2018-03-21T05:36:04.499Z,83.96
2018-03-21T05:38:32.924Z,84.09
2018-03-21T05:41:01.211Z,84.94
2018-03-21T05:43:29.481Z,84.88
2018-03-21T05:45:57.754Z,84.47
2018-03-21T05:48:26.082Z,84.98
2018-03-21T05:50:54.360Z,85.04
2018-03-21T05:53:22.668Z,85.30
2018-03-21T05:55:51.791Z,84.61
2018-03-21T05:58:20.068Z,84.01
2018-03-21T06:00:48.332Z,83.73
2018-03-21T06:03:16.597Z,83.28
2018-03-21T06:05:44.887Z,83.00
2018-03-21T06:08:13.189Z,81.92
2018-03-21T06:10:42.228Z,81.56
2018-03-21T06:13:10.545Z,81.60
2018-03-21T06:15:38.800Z,81.37
2018-03-21T06:18:07.132Z,80.95
2018-03-21T06:20:36.117Z,81.02
2018-03-21T06:23:05.161Z,81.35
2018-03-21T06:25:33.472Z,82.04
2018-03-21T06:28:01.728Z,81.90
2018-03-21T06:30:30.001Z,82.04
2018-03-21T06:32:58.283Z,82.21
2018-03-21T06:35:26.536Z,81.86
2018-03-21T06:37:54.800Z,81.68
2018-03-21T06:40:23.084Z,80.33
2018-03-21T06:42:51.357Z,80.29
2018-03-21T06:45:19.623Z,80.33
2018-03-21T06:47:47.932Z,80.46
2018-03-21T06:50:16.215Z,79.98
2018-03-21T06:52:44.472Z,79.69
2018-03-21T06:55:12.804Z,79.34
2018-03-21T06:57:41.101Z,79.14
2018-03-21T07:00:09.360Z,78.84
2018-03-21T07:02:38.405Z,78.70
2018-03-21T07:05:06.672Z,78.18
2018-03-21T07:07:34.952Z,77.34
2018-03-21T07:10:03.219Z,77.34
2018-03-21T07:12:31.487Z,76.58
2018-03-21T07:15:17.528Z,76.06
2018-03-21T07:17:45.796Z,75.66
2018-03-21T07:20:14.071Z,75.23
2018-03-21T07:22:42.344Z,74.97
2018-03-21T07:25:10.612Z,74.75
2018-03-21T07:27:38.868Z,74.91
2018-03-21T07:30:07.148Z,74.62
2018-03-21T07:32:35.397Z,74.63
2018-03-21T07:35:03.643Z,74.14
2018-03-21T07:37:32.688Z,73.95
2018-03-21T07:40:00.940Z,74.06
2018-03-21T07:42:29.189Z,73.83
2018-03-21T07:44:57.465Z,73.49
2018-03-21T07:47:26.489Z,73.35
2018-03-21T07:49:54.738Z,73.85
2018-03-21T07:52:23.830Z,73.62
2018-03-21T07:54:52.856Z,72.92
2018-03-21T07:57:21.097Z,72.95
2018-03-21T07:59:50.131Z,72.31
2018-03-21T08:02:18.437Z,70.82
2018-03-21T08:04:46.654Z,70.14
2018-03-21T08:07:15.696Z,69.60
2018-03-21T08:09:43.968Z,70.38
2018-03-21T08:12:12.239Z,70.16
2018-03-21T08:14:40.502Z,69.97
2018-03-21T08:17:08.747Z,69.35
2018-03-21T08:19:37.779Z,69.09
2018-03-21T08:22:06.052Z,68.24
2018-03-21T08:24:34.305Z,67.41
2018-03-21T08:27:02.585Z,66.99
2018-03-21T08:29:31.595Z,66.45
2018-03-21T08:31:59.859Z,66.39
2018-03-21T08:34:28.162Z,65.66
2018-03-21T08:36:56.390Z,65.10
2018-03-21T08:39:25.435Z,65.00
2018-03-21T08:41:53.696Z,65.35
2018-03-21T08:44:21.975Z,65.00
2018-03-21T08:46:50.240Z,63.66
2018-03-21T08:49:18.486Z,63.72
2018-03-21T08:51:47.527Z,63.11
2018-03-21T08:54:15.806Z,62.48
2018-03-21T08:56:44.060Z,62.87
2018-03-21T08:59:12.343Z,62.55
2018-03-21T09:01:40.616Z,61.30
2018-03-21T09:04:08.869Z,61.98
2018-03-21T09:06:37.910Z,61.62
2018-03-21T09:09:06.161Z,60.41
2018-03-21T09:11:34.416Z,59.72
2018-03-21T09:14:02.700Z,59.71
2018-03-21T09:16:30.952Z,60.44
2018-03-21T09:18:59.991Z,58.74
2018-03-21T09:21:28.251Z,57.78
2018-03-21T09:23:56.701Z,58.60
2018-03-21T09:26:24.945Z,57.50
2018-03-21T09:28:53.238Z,57.61
2018-03-21T09:31:22.276Z,55.65
2018-03-21T09:33:50.523Z,54.99
2018-03-21T09:36:19.560Z,54.83
2018-03-21T09:38:47.824Z,55.10
2018-03-21T09:41:16.084Z,55.08
2018-03-21T09:43:45.171Z,55.33
2018-03-21T09:46:14.189Z,54.78
2018-03-21T09:48:42.452Z,55.03
2018-03-21T09:51:10.720Z,53.19
2018-03-21T09:53:39.748Z,52.64
2018-03-21T09:56:08.010Z,52.54
2018-03-21T09:58:36.285Z,52.13
2018-03-21T10:01:04.608Z,52.86
2018-03-21T10:03:32.806Z,51.99
2018-03-21T10:06:01.868Z,50.06
2018-03-21T10:08:30.120Z,49.43
2018-03-21T10:10:58.382Z,50.18
2018-03-21T10:13:26.656Z,51.92
2018-03-21T10:15:54.903Z,51.06
2018-03-21T10:18:23.948Z,50.65
2018-03-21T10:20:52.192Z,51.14
2018-03-21T10:23:20.467Z,48.32
2018-03-21T10:25:49.503Z,48.21
2018-03-21T10:28:17.760Z,48.82
2018-03-21T10:30:46.020Z,47.58
2018-03-21T10:33:14.347Z,46.35
2018-03-21T10:35:42.600Z,44.58
2018-03-21T10:38:10.886Z,44.50
2018-03-21T10:40:39.141Z,45.98
2018-03-21T10:43:07.401Z,44.58
2018-03-21T10:45:35.712Z,43.66
2018-03-21T10:48:03.967Z,45.54
2018-03-21T10:50:32.236Z,43.23
2018-03-21T10:53:00.520Z,44.49
2018-03-21T10:55:28.779Z,43.86
2018-03-21T10:57:57.053Z,42.60
2018-03-21T11:00:26.085Z,42.30
2018-03-21T11:02:59.812Z,41.27
2018-03-21T11:05:28.104Z,41.23
2018-03-21T11:07:57.121Z,41.47
2018-03-21T11:10:25.375Z,41.04
2018-03-21T11:12:54.425Z,40.59
2018-03-21T11:15:22.673Z,40.71
2018-03-21T11:17:50.998Z,41.09
2018-03-21T11:20:20.104Z,39.94
2018-03-21T11:22:49.242Z,40.31
2018-03-21T11:25:17.672Z,40.27
2018-03-21T11:27:45.988Z,39.96
2018-03-21T11:30:14.334Z,40.79
2018-03-21T11:32:43.474Z,41.22
2018-03-21T11:35:11.820Z,41.52
2018-03-21T11:37:41.014Z,39.86
2018-03-21T11:40:09.320Z,39.66
2018-03-21T11:42:37.616Z,39.91
2018-03-21T11:45:05.901Z,39.80
2018-03-21T11:47:34.168Z,37.73
2018-03-21T11:50:02.432Z,39.23
2018-03-21T11:52:30.695Z,38.27
2018-03-21T11:54:58.962Z,37.65
2018-03-21T11:57:27.980Z,36.80
2018-03-21T11:59:56.226Z,37.75
2018-03-21T12:02:25.266Z,37.47
2018-03-21T12:04:53.516Z,36.64
2018-03-21T12:07:21.783Z,37.02
2018-03-21T12:09:50.040Z,37.66
2018-03-21T12:12:18.311Z,35.75
2018-03-21T12:14:46.609Z,35.63
2018-03-21T12:17:15.724Z,36.97
2018-03-21T12:19:44.001Z,36.99
2018-03-21T12:22:12.257Z,35.62
2018-03-21T12:24:41.295Z,35.49
2018-03-21T12:27:09.568Z,34.26
2018-03-21T12:29:37.845Z,32.57
2018-03-21T12:32:06.121Z,35.05
2018-03-21T12:34:34.395Z,34.65
2018-03-21T12:37:02.652Z,35.26
2018-03-21T12:39:30.942Z,35.52
2018-03-21T12:41:59.204Z,34.59
2018-03-21T12:44:27.529Z,35.40
2018-03-21T12:46:55.749Z,34.21
2018-03-21T12:49:24.001Z,34.86
2018-03-21T12:51:53.028Z,33.49
2018-03-21T12:54:21.300Z,33.67
2018-03-21T12:56:49.564Z,34.11
2018-03-21T12:59:17.821Z,33.40
2018-03-21T13:01:46.863Z,32.45
2018-03-21T13:04:15.120Z,31.56
2018-03-21T13:06:43.406Z,32.97
2018-03-21T13:09:11.716Z,33.21
2018-03-21T13:11:39.983Z,32.27
2018-03-21T13:14:08.255Z,31.54
2018-03-21T13:16:36.606Z,31.24
2018-03-21T13:19:04.870Z,32.32
2018-03-21T13:21:33.141Z,32.34
2018-03-21T13:24:01.432Z,31.87
2018-03-21T13:26:29.724Z,32.46
2018-03-21T13:28:57.992Z,31.89
2018-03-21T13:31:26.248Z,30.47
2018-03-21T13:33:54.529Z,29.91
2018-03-21T13:36:22.844Z,29.12
2018-03-21T13:38:51.115Z,30.06
2018-03-21T13:41:19.400Z,30.06
2018-03-21T13:43:47.659Z,30.17
2018-03-21T13:46:15.928Z,28.71
2018-03-21T13:48:44.200Z,28.53
2018-03-21T13:51:12.462Z,28.71
2018-03-21T13:53:40.722Z,30.68
2018-03-21T13:56:09.752Z,30.56
2018-03-21T13:58:38.008Z,31.00
2018-03-21T14:01:06.278Z,32.10
2018-03-21T14:03:34.571Z,32.01
2018-03-21T14:06:02.832Z,30.31
2018-03-21T14:08:31.140Z,30.14
2018-03-21T14:10:59.421Z,30.37
2018-03-21T14:13:27.703Z,29.33
2018-03-21T14:15:55.957Z,29.65
2018-03-21T14:18:24.232Z,28.86
2018-03-21T14:20:52.744Z,27.79
2018-03-21T14:23:21.163Z,26.96
2018-03-21T14:25:50.199Z,27.09
2018-03-21T14:28:18.456Z,26.73
2018-03-21T14:30:46.830Z,27.04
2018-03-21T14:33:15.112Z,26.04
2018-03-21T14:35:43.393Z,27.03
2018-03-21T14:38:11.656Z,27.64
2018-03-21T14:40:39.920Z,28.65
2018-03-21T14:43:08.968Z,29.53
2018-03-21T14:45:37.221Z,28.49
2018-03-21T14:48:05.486Z,28.92
2018-03-21T14:50:33.768Z,28.07
2018-03-21T14:53:02.029Z,29.65
2018-03-21T14:55:30.305Z,33.07
2018-03-21T14:57:58.570Z,35.02
2018-03-21T15:00:27.590Z,34.98
2018-03-21T15:02:55.895Z,36.38
2018-03-21T15:05:24.165Z,37.05
2018-03-21T15:07:52.431Z,36.38
2018-03-21T15:10:20.671Z,37.02
2018-03-21T15:12:48.958Z,35.74
2018-03-21T15:15:17.200Z,34.90
2018-03-21T15:17:46.223Z,34.29
2018-03-21T15:20:14.499Z,34.95
2018-03-21T15:22:42.772Z,35.76
2018-03-21T15:25:11.030Z,34.42
2018-03-21T15:27:40.072Z,33.06
2018-03-21T15:30:08.333Z,32.35
2018-03-21T15:32:36.606Z,34.55
2018-03-21T15:35:04.884Z,35.01
2018-03-21T15:37:33.156Z,38.34
2018-03-21T15:40:01.426Z,37.90
2018-03-21T15:42:29.736Z,36.90
2018-03-21T15:44:58.035Z,42.01
2018-03-21T15:47:26.284Z,42.74
2018-03-21T15:49:54.543Z,43.71
2018-03-21T15:52:22.797Z,43.54
2018-03-21T15:54:51.146Z,42.91
2018-03-21T15:57:19.423Z,41.73
2018-03-21T15:59:47.680Z,41.30
2018-03-21T16:02:16.021Z,40.40
2018-03-21T16:04:44.298Z,41.92
2018-03-21T16:07:12.603Z,45.40
2018-03-21T16:09:40.936Z,45.97
2018-03-21T16:12:09.407Z,45.76
2018-03-21T16:14:38.424Z,47.11
2018-03-21T16:17:06.679Z,48.39
2018-03-21T16:19:35.741Z,47.16
2018-03-21T16:22:04.008Z,48.78
2018-03-21T16:24:32.272Z,47.77
2018-03-21T16:27:00.552Z,46.19
2018-03-21T16:29:28.819Z,45.26
2018-03-21T16:31:57.182Z,44.40
2018-03-21T16:34:25.475Z,45.70
2018-03-21T16:36:53.725Z,46.16
2018-03-21T16:39:22.044Z,46.83
2018-03-21T16:41:50.310Z,46.89
2018-03-21T16:44:18.581Z,48.34
2018-03-21T16:46:46.836Z,50.59
2018-03-21T16:49:15.118Z,51.13
2018-03-21T16:51:43.413Z,51.52
2018-03-21T16:54:11.705Z,52.86
2018-03-21T16:56:40.131Z,54.30
2018-03-21T16:59:08.512Z,54.04
2018-03-21T17:01:36.790Z,55.77
2018-03-21T17:04:05.179Z,55.96
2018-03-21T17:06:33.499Z,55.27
2018-03-21T17:09:01.882Z,56.35
2018-03-21T17:11:30.405Z,55.36
2018-03-21T17:13:58.796Z,54.90
2018-03-21T17:16:27.097Z,55.12
2018-03-21T17:18:55.385Z,55.80
2018-03-21T17:21:23.929Z,56.75
2018-03-21T17:23:52.299Z,58.23
2018-03-21T17:26:20.593Z,59.47
2018-03-21T17:28:49.270Z,60.37
2018-03-21T17:31:18.203Z,60.17
2018-03-21T17:33:47.257Z,60.71
2018-03-21T17:36:16.602Z,60.44
2018-03-21T17:38:44.926Z,59.81
2018-03-21T17:41:13.274Z,59.74
2018-03-21T17:43:42.350Z,59.95
2018-03-21T17:46:10.834Z,59.91
2018-03-21T17:48:40.504Z,59.33
2018-03-21T17:51:09.566Z,59.43
2018-03-21T17:53:38.892Z,59.35
2018-03-21T17:56:08.851Z,59.30
2018-03-21T17:58:38.978Z,59.32
2018-03-21T18:01:08.723Z,58.92
2018-03-21T18:03:38.456Z,59.29
2018-03-21T18:06:09.332Z,58.93
2018-03-21T18:08:42.929Z,59.11
2018-03-21T18:11:12.860Z,59.49
2018-03-21T18:13:42.649Z,59.39
2018-03-21T18:16:12.842Z,59.16
2018-03-21T18:18:42.775Z,60.00
2018-03-21T18:21:13.165Z,59.85
2018-03-21T18:23:43.908Z,59.43
2018-03-21T18:26:13.818Z,59.88
2018-03-21T18:28:44.666Z,60.36
2018-03-21T18:31:15.560Z,62.10
2018-03-21T18:33:45.435Z,61.92
2018-03-21T18:36:16.274Z,62.61
2018-03-21T18:38:46.086Z,62.97
2018-03-21T18:41:16.002Z,62.64
2018-03-21T18:43:45.930Z,62.09
2018-03-21T18:46:16.121Z,62.97
2018-03-21T18:48:45.972Z,62.39
2018-03-21T18:51:15.782Z,62.68
2018-03-21T18:53:45.588Z,63.24
2018-03-21T18:56:15.697Z,62.71
2018-03-21T18:58:45.708Z,63.47
2018-03-21T19:01:15.464Z,62.96
2018-03-21T19:03:45.714Z,62.72
2018-03-21T19:06:15.908Z,62.60
2018-03-21T19:08:45.192Z,62.81
2018-03-21T19:11:14.565Z,62.63
2018-03-21T19:13:44.018Z,63.07
2018-03-21T19:16:13.468Z,63.93
2018-03-21T19:18:43.808Z,64.30
2018-03-21T19:21:13.279Z,64.91
2018-03-21T19:23:44.131Z,64.52
2018-03-21T19:26:13.797Z,63.65
2018-03-21T19:28:44.045Z,63.35
2018-03-21T19:31:14.145Z,63.53
2018-03-21T19:33:44.318Z,63.30
2018-03-21T19:36:14.072Z,62.98
2018-03-21T19:38:45.533Z,63.34
2018-03-21T19:41:16.224Z,63.08
2018-03-21T19:43:46.221Z,63.34
2018-03-21T19:46:16.374Z,64.69
2018-03-21T19:48:46.352Z,67.26
2018-03-21T19:51:16.440Z,68.07
2018-03-21T19:53:47.215Z,67.67
2018-03-21T19:56:17.330Z,68.33
2018-03-21T19:58:47.616Z,67.54
2018-03-21T20:01:18.463Z,67.90
2018-03-21T20:03:48.384Z,68.21
2018-03-21T20:06:18.432Z,67.70
2018-03-21T20:08:48.430Z,67.68
2018-03-21T20:11:18.327Z,67.71
2018-03-21T20:13:48.227Z,67.30
2018-03-21T20:16:19.057Z,67.16
2018-03-21T20:18:49.828Z,67.31
2018-03-21T20:21:19.491Z,67.53
2018-03-21T20:23:49.715Z,67.60
2018-03-21T20:26:20.211Z,69.17
2018-03-21T20:28:49.579Z,68.87
2018-03-21T20:31:20.175Z,68.88
2018-03-21T20:33:51.777Z,68.97
2018-03-21T20:36:21.696Z,68.02
2018-03-21T20:38:51.703Z,69.11
2018-03-21T20:41:21.794Z,68.83
2018-03-21T20:43:52.654Z,68.32
2018-03-21T20:46:22.535Z,69.29
2018-03-21T20:48:53.890Z,68.55
2018-03-21T20:51:24.150Z,68.13
2018-03-21T20:53:54.191Z,68.97
2018-03-21T20:56:24.829Z,68.82
2018-03-21T20:58:54.852Z,68.81
2018-03-21T21:01:24.690Z,69.31
2018-03-21T21:03:55.546Z,70.60
2018-03-21T21:06:25.446Z,70.72
2018-03-21T21:08:56.340Z,69.47
2018-03-21T21:11:26.208Z,68.91
2018-03-21T21:13:56.104Z,69.44
2018-03-21T21:16:26.776Z,69.16
2018-03-21T21:18:57.463Z,68.37
2018-03-21T21:21:27.550Z,68.42
2018-03-21T21:23:58.012Z,68.53
2018-03-21T21:26:28.692Z,69.47
2018-03-21T21:28:58.995Z,69.30
2018-03-21T21:31:29.636Z,70.07
2018-03-21T21:33:59.677Z,70.19
2018-03-21T21:36:29.490Z,70.43
2018-03-21T21:38:59.552Z,70.01
2018-03-21T21:41:30.080Z,69.82
2018-03-21T21:43:59.894Z,69.60
2018-03-21T21:46:30.590Z,69.71
2018-03-21T21:49:00.580Z,70.03
2018-03-21T21:51:29.972Z,69.65
2018-03-21T21:54:00.064Z,70.93
2018-03-21T21:56:30.681Z,70.67
2018-03-21T21:59:00.552Z,71.51
2018-03-21T22:01:31.862Z,71.37
2018-03-21T22:04:02.714Z,71.29
2018-03-21T22:06:32.219Z,70.94
2018-03-21T22:09:03.010Z,71.65
2018-03-21T22:11:32.784Z,73.17
2018-03-21T22:14:02.121Z,74.60
2018-03-21T22:16:31.555Z,74.36
2018-03-21T22:18:59.920Z,75.20
2018-03-21T22:21:28.339Z,74.78
2018-03-21T22:23:56.616Z,75.48
2018-03-21T22:26:24.873Z,75.05
2018-03-21T22:28:53.164Z,74.56
2018-03-21T22:31:21.408Z,74.30
2018-03-21T22:33:49.663Z,74.74
2018-03-21T22:36:18.702Z,74.44
2018-03-21T22:38:46.971Z,74.73
2018-03-21T22:41:15.212Z,75.68
2018-03-21T22:43:44.251Z,76.42
2018-03-21T22:46:12.499Z,76.58
2018-03-21T22:48:40.759Z,76.06
2018-03-21T22:51:09.791Z,75.99
2018-03-21T22:53:38.051Z,76.28
2018-03-21T22:56:06.304Z,75.98
2018-03-21T22:58:35.348Z,75.45
2018-03-21T23:01:03.661Z,76.38
2018-03-21T23:03:31.924Z,76.11
2018-03-21T23:06:00.236Z,76.36
2018-03-21T23:08:29.257Z,76.54
2018-03-21T23:10:57.511Z,76.93
2018-03-21T23:13:25.800Z,77.22
2018-03-21T23:15:54.072Z,77.08
2018-03-21T23:18:23.088Z,76.92
2018-03-21T23:20:51.354Z,76.75
2018-03-21T23:23:19.611Z,76.65
2018-03-21T23:25:47.940Z,77.62
2018-03-21T23:28:16.277Z,77.11
2018-03-21T23:30:44.540Z,77.21
2018-03-21T23:33:12.791Z,76.76
2018-03-21T23:35:41.816Z,76.96
2018-03-21T23:38:10.097Z,77.17
2018-03-21T23:40:38.369Z,78.17
2018-03-21T23:43:06.653Z,77.86
2018-03-21T23:45:34.973Z,77.60
2018-03-21T23:48:03.256Z,77.64
2018-03-21T23:50:32.294Z,77.56
2018-03-21T23:53:00.589Z,77.74
2018-03-21T23:55:28.850Z,78.26
2018-03-21T23:57:57.138Z,78.59
